Pagina principale
METAR-TAF:

METAR-TAF

Aeroporti :

Aeroporto di Pisa-San Giusto

Pisa, Italia

latitudine: 43-41N, longitudine: 010-23E, altezza: 2 m

Osservazione

Il bollettino è stato emesso 28 minuti fa, alle 09:45 UTC
Vento 3 kt da direzioni variabili
Temperature 13°C
Umidità 58%
Pressione 1013 hPa
Visibilità 10 km o più
Nubi sparse ad un'altezza di 6000 ft

METAR: LIRP 090945Z VRB03KT 9999 SCT060 13/05 Q1013 NOSIG

Ora: 11:13 (10:13 UTC)

Previsione

Il bollettino è stato emesso 5 ore e 13 minuti fa, alle 05:00 UTC
Previsione valida dal 09 alle 06 UTC al 10 alle 06 UTC
Vento 10 kt da sud-est
Visibilità 10 km o più
Nubi sparse ad un'altezza di 6000 ft

TAF: LIRP 090500Z 0906/1006 13010KT 9999 SCT060

Osservazioni e previsioni meteorologiche di più di 4000 aeroporti (messaggi METAR e TAF).

Le stazioni disponibili sono rappresentate dai dischi gialli e rossi sulla carta.

Puntare il mouse per vedere il nome della stazione.

Clicca sopra per visualizzare le osservazioni e previsioni meteorologiche.

Per cambiare la mappa : fare clic sui pulsanti verdi con una croce nera per ingrandire, il pulsante verde con un trattino per diminuire, o sulla freccia verde per le mappe adiacenti.


METAR-TAF: